Terminal Aerodrome Forecast
Issued by NWS

Home | Current Version | Previous Version | Graphics & Text | Print | Product List | Glossary On
Versions: 1 2 3 4 5 6 7 8 9 10 11 12 13 14 15 16
000
FTUS43 KBIS 201500 AAB
TAFJMS
TAF AMD
KJMS 201518Z 2015/2112 27007KT P6SM SCT090
     FM201600 29018G26KT P6SM -SHRA SCT050 BKN070
      TEMPO 2016/2019 4SM -TSRA BKN030CB
     FM202100 32022G31KT P6SM SCT070
     FM210100 31012KT P6SM SKC=

USA.gov is the U.S. government's official web portal to all federal, state and local government web resources and services.